createdAt,value
2022-11-06T00:00:54.517Z,12.60
2022-11-06T00:03:21.685Z,12.70
2022-11-06T00:06:09.127Z,12.90
2022-11-06T00:08:37.990Z,12.70
2022-11-06T00:11:10.119Z,12.70
2022-11-06T00:13:37.095Z,12.60
2022-11-06T00:16:05.147Z,12.90
2022-11-06T00:18:32.380Z,12.70
2022-11-06T00:21:06.608Z,12.70
2022-11-06T00:23:33.631Z,12.60
2022-11-06T00:26:00.593Z,12.50
2022-11-06T00:28:27.495Z,12.60
2022-11-06T00:31:01.866Z,12.70
2022-11-06T00:33:29.001Z,12.80
2022-11-06T00:35:55.992Z,12.60
2022-11-06T00:38:24.287Z,12.70
2022-11-06T00:40:51.239Z,12.60
2022-11-06T00:43:18.139Z,12.60
2022-11-06T00:45:45.098Z,12.60
2022-11-06T00:48:12.364Z,12.80
2022-11-06T00:50:39.548Z,12.80
2022-11-06T00:53:06.454Z,12.80
2022-11-06T00:55:35.051Z,12.60
2022-11-06T00:58:01.965Z,12.90
2022-11-06T01:00:28.931Z,12.90
2022-11-06T01:02:56.721Z,13.10
2022-11-06T01:05:23.746Z,13.10
2022-11-06T01:07:50.677Z,13.00
2022-11-06T01:10:17.550Z,12.80
2022-11-06T01:12:46.003Z,12.90
2022-11-06T01:15:13.148Z,12.90
2022-11-06T01:17:40.064Z,13.10
2022-11-06T01:20:08.139Z,13.00
2022-11-06T01:22:35.079Z,13.00
2022-11-06T01:25:02.893Z,12.90
2022-11-06T01:27:29.897Z,12.90
2022-11-06T01:29:58.360Z,12.90
2022-11-06T01:32:25.278Z,13.10
2022-11-06T01:34:52.340Z,13.00
2022-11-06T01:37:19.381Z,13.00
2022-11-06T01:39:46.462Z,13.20
2022-11-06T01:42:15.499Z,13.20
2022-11-06T01:45:07.577Z,13.40
2022-11-06T01:47:34.545Z,13.40
2022-11-06T01:50:06.877Z,13.00
2022-11-06T01:52:35.167Z,13.30
2022-11-06T01:55:08.553Z,13.30
2022-11-06T01:57:35.539Z,13.40
2022-11-06T02:00:05.862Z,13.50
2022-11-06T02:02:33.417Z,13.40
2022-11-06T02:05:00.517Z,13.40
2022-11-06T02:07:27.494Z,13.50
2022-11-06T02:09:54.601Z,13.20
2022-11-06T02:12:40.670Z,13.10
2022-11-06T02:15:11.798Z,13.00
2022-11-06T02:17:51.614Z,13.00
2022-11-06T02:20:22.434Z,13.00
2022-11-06T02:22:58.619Z,13.10
2022-11-06T02:28:10.834Z,13.30
2022-11-06T02:30:41.561Z,13.40
2022-11-06T02:33:12.309Z,13.40
2022-11-06T02:35:44.190Z,13.30
2022-11-06T02:38:15.594Z,13.50
2022-11-06T02:40:48.353Z,13.40
2022-11-06T02:43:19.931Z,13.30
2022-11-06T02:45:48.850Z,13.30
2022-11-06T02:48:19.470Z,13.30
2022-11-06T02:50:50.453Z,13.30
2022-11-06T02:53:21.115Z,13.30
2022-11-06T02:55:50.952Z,13.30
2022-11-06T02:58:23.892Z,13.30
2022-11-06T03:00:52.235Z,13.40
2022-11-06T03:03:23.307Z,13.20
2022-11-06T03:05:53.810Z,13.20
2022-11-06T03:08:28.846Z,13.30
2022-11-06T03:11:00.002Z,13.40
2022-11-06T03:13:35.569Z,13.30
2022-11-06T03:16:07.100Z,13.50
2022-11-06T03:18:40.154Z,13.50
2022-11-06T03:21:15.163Z,13.40
2022-11-06T03:23:48.504Z,13.60
2022-11-06T03:26:18.509Z,13.70
2022-11-06T03:28:53.142Z,13.60
2022-11-06T03:31:28.185Z,13.70
2022-11-06T03:34:00.922Z,13.70
2022-11-06T03:36:34.222Z,13.90
2022-11-06T03:39:05.148Z,13.90
2022-11-06T03:41:38.724Z,13.50
2022-11-06T03:44:10.665Z,13.60
2022-11-06T03:46:42.577Z,13.50
2022-11-06T03:49:14.872Z,13.60
2022-11-06T03:51:46.089Z,13.30
2022-11-06T03:54:16.238Z,13.60
2022-11-06T03:56:49.194Z,13.60
2022-11-06T03:59:23.359Z,13.70
2022-11-06T04:01:54.020Z,13.50
2022-11-06T04:04:26.360Z,13.50
2022-11-06T04:06:58.134Z,13.70
2022-11-06T04:09:47.887Z,13.60
2022-11-06T04:12:38.459Z,13.60
2022-11-06T04:15:10.556Z,13.50
2022-11-06T04:17:39.172Z,13.40
2022-11-06T04:20:10.583Z,13.40
2022-11-06T04:22:46.754Z,13.30
2022-11-06T04:25:46.049Z,13.30
2022-11-06T04:28:21.371Z,13.50
2022-11-06T04:31:06.991Z,13.60
2022-11-06T04:33:41.138Z,13.80
2022-11-06T04:36:16.735Z,14.00
2022-11-06T04:38:52.397Z,13.90
2022-11-06T04:41:26.127Z,14.00
2022-11-06T04:43:58.703Z,13.70
2022-11-06T04:46:32.579Z,13.80
2022-11-06T04:49:01.973Z,13.80
2022-11-06T04:51:33.671Z,13.80
2022-11-06T04:54:01.770Z,13.90
2022-11-06T04:56:34.808Z,14.10
2022-11-06T04:59:02.862Z,14.00
2022-11-06T05:01:31.462Z,13.80
2022-11-06T05:03:58.547Z,13.60
2022-11-06T05:06:29.801Z,13.60
2022-11-06T05:08:58.218Z,13.60
2022-11-06T05:11:25.444Z,13.70
2022-11-06T05:13:52.387Z,13.60
2022-11-06T05:16:19.383Z,13.80
2022-11-06T05:18:47.721Z,14.00
2022-11-06T05:21:33.419Z,13.90
2022-11-06T05:24:00.349Z,13.80
2022-11-06T05:26:27.342Z,13.80
2022-11-06T05:28:54.305Z,13.50
2022-11-06T05:31:21.461Z,13.50
2022-11-06T05:33:49.743Z,13.50
2022-11-06T05:36:16.718Z,13.50
2022-11-06T05:38:43.663Z,13.50
2022-11-06T05:41:10.706Z,13.60
2022-11-06T05:43:37.648Z,13.40
2022-11-06T05:46:04.878Z,13.50
2022-11-06T05:48:31.856Z,13.40
2022-11-06T05:51:05.076Z,13.20
2022-11-06T05:53:33.967Z,13.20
2022-11-06T05:56:01.095Z,13.40
2022-11-06T05:58:28.491Z,13.50
2022-11-06T06:00:56.506Z,13.70
2022-11-06T06:03:23.961Z,13.60
2022-11-06T06:05:51.446Z,13.30
2022-11-06T06:08:19.741Z,13.40
2022-11-06T06:10:47.435Z,13.50
2022-11-06T06:13:15.243Z,13.60
2022-11-06T06:15:42.824Z,13.40
2022-11-06T06:18:10.766Z,13.10
2022-11-06T06:20:38.165Z,13.00
2022-11-06T06:23:09.343Z,13.00
2022-11-06T06:25:37.956Z,13.10
2022-11-06T06:28:04.907Z,13.10
2022-11-06T06:30:32.043Z,13.20
2022-11-06T06:33:05.334Z,13.00
2022-11-06T06:35:32.808Z,13.10
2022-11-06T06:37:59.756Z,12.90
2022-11-06T06:40:26.939Z,13.10
2022-11-06T06:42:57.268Z,13.20
2022-11-06T06:45:27.082Z,13.10
2022-11-06T06:47:54.115Z,13.10
2022-11-06T06:50:21.150Z,13.20
2022-11-06T06:52:48.108Z,13.20
2022-11-06T06:55:15.209Z,13.10
2022-11-06T06:57:42.120Z,13.10
2022-11-06T07:00:11.755Z,13.00
2022-11-06T07:02:38.657Z,12.90
2022-11-06T07:05:06.157Z,13.10
2022-11-06T07:07:33.133Z,13.20
2022-11-06T07:10:00.173Z,13.30
2022-11-06T07:12:27.869Z,13.20
2022-11-06T07:14:54.974Z,13.00
2022-11-06T07:17:23.298Z,13.20
2022-11-06T07:19:50.331Z,13.40
2022-11-06T07:22:19.336Z,13.60
2022-11-06T07:24:50.393Z,13.80
2022-11-06T07:27:17.441Z,14.00
2022-11-06T07:29:44.511Z,14.00
2022-11-06T07:32:11.529Z,14.00
2022-11-06T07:34:40.181Z,14.40
2022-11-06T07:37:07.895Z,14.60
2022-11-06T07:39:35.551Z,14.40
2022-11-06T07:42:02.532Z,14.40
2022-11-06T07:44:35.458Z,14.40
2022-11-06T07:47:02.625Z,14.30
2022-11-06T07:49:29.943Z,14.40
2022-11-06T07:51:58.348Z,14.40
2022-11-06T07:54:25.315Z,14.40
2022-11-06T07:56:52.400Z,13.90
2022-11-06T07:59:19.669Z,13.80
2022-11-06T08:01:46.842Z,14.10
2022-11-06T08:04:13.891Z,14.20
2022-11-06T08:06:40.958Z,14.30
2022-11-06T08:09:10.368Z,14.10
2022-11-06T08:11:37.568Z,13.90
2022-11-06T08:14:04.927Z,13.80
2022-11-06T08:16:32.019Z,13.90
2022-11-06T08:18:59.040Z,13.90
2022-11-06T08:21:26.105Z,13.90
2022-11-06T08:23:53.299Z,14.10
2022-11-06T08:26:22.092Z,14.20
2022-11-06T08:28:49.299Z,14.40
2022-11-06T08:31:16.510Z,14.30
2022-11-06T08:33:43.621Z,14.30
2022-11-06T08:36:11.157Z,14.50
2022-11-06T08:38:38.740Z,14.60
2022-11-06T08:41:06.310Z,14.70
2022-11-06T08:43:35.555Z,14.80
2022-11-06T08:46:03.415Z,14.90
2022-11-06T08:48:31.686Z,15.20
2022-11-06T08:50:58.723Z,15.00
2022-11-06T08:53:25.798Z,15.00
2022-11-06T08:55:53.502Z,15.10
2022-11-06T08:58:20.941Z,14.90
2022-11-06T09:00:49.674Z,15.10
2022-11-06T09:03:18.221Z,15.20
2022-11-06T09:05:45.895Z,14.90
2022-11-06T09:08:13.972Z,14.90
2022-11-06T09:10:42.670Z,15.10
2022-11-06T09:13:10.259Z,15.80
2022-11-06T09:15:38.101Z,16.40
2022-11-06T09:18:06.816Z,17.00
2022-11-06T09:20:34.672Z,17.30
2022-11-06T09:23:03.160Z,17.00
2022-11-06T09:25:30.829Z,16.60
2022-11-06T09:27:59.731Z,16.40
2022-11-06T09:30:29.157Z,16.10
2022-11-06T09:32:58.048Z,15.70
2022-11-06T09:35:28.555Z,15.60
2022-11-06T09:38:00.029Z,15.70
2022-11-06T09:40:30.586Z,16.10
2022-11-06T09:43:07.295Z,16.20
2022-11-06T09:45:38.085Z,16.20
2022-11-06T09:48:16.328Z,16.10
2022-11-06T09:50:50.544Z,16.10
2022-11-06T09:53:22.381Z,16.20
2022-11-06T09:55:50.087Z,16.00
2022-11-06T09:58:22.006Z,16.00
2022-11-06T10:00:52.377Z,16.20
2022-11-06T10:03:26.574Z,16.20
2022-11-06T10:05:55.183Z,16.50
2022-11-06T10:08:24.425Z,16.40
2022-11-06T10:11:02.059Z,16.40
2022-11-06T10:13:45.441Z,16.40
2022-11-06T10:16:20.588Z,16.30
2022-11-06T10:18:56.941Z,16.10
2022-11-06T10:21:33.778Z,16.30
2022-11-06T10:24:08.774Z,16.20
2022-11-06T10:26:40.376Z,16.60
2022-11-06T10:29:36.062Z,16.50
2022-11-06T10:32:20.622Z,16.90
2022-11-06T10:34:52.512Z,16.70
2022-11-06T10:37:26.036Z,17.20
2022-11-06T10:39:55.338Z,17.20
2022-11-06T10:42:24.962Z,17.50
2022-11-06T10:44:57.763Z,17.80
2022-11-06T10:47:29.971Z,17.60
2022-11-06T10:49:58.737Z,17.80
2022-11-06T10:52:40.246Z,17.90
2022-11-06T10:55:46.303Z,17.80
2022-11-06T10:58:16.552Z,17.80
2022-11-06T11:00:44.195Z,18.00
2022-11-06T11:03:21.174Z,18.20
2022-11-06T11:05:48.553Z,18.40
2022-11-06T11:08:36.400Z,18.20
2022-11-06T11:11:05.843Z,18.10
2022-11-06T11:13:33.904Z,17.80
2022-11-06T11:16:02.779Z,17.40
2022-11-06T11:18:33.936Z,17.00
2022-11-06T11:21:05.518Z,17.10
2022-11-06T11:23:32.715Z,17.10
2022-11-06T11:26:18.702Z,16.90
2022-11-06T11:28:51.256Z,17.10
2022-11-06T11:31:19.558Z,16.70
2022-11-06T11:33:53.086Z,16.80
2022-11-06T11:36:20.226Z,16.90
2022-11-06T11:38:48.598Z,16.70
2022-11-06T11:41:23.895Z,16.70
2022-11-06T11:44:04.108Z,17.20
2022-11-06T11:46:31.816Z,17.30
2022-11-06T11:48:59.798Z,17.00
2022-11-06T11:51:36.633Z,16.80
2022-11-06T11:54:18.323Z,16.60
2022-11-06T11:57:04.222Z,16.80
2022-11-06T11:59:42.579Z,16.90
2022-11-06T12:02:22.190Z,16.90
2022-11-06T12:04:55.676Z,17.10
2022-11-06T12:07:25.775Z,17.20
2022-11-06T12:09:53.178Z,17.00
2022-11-06T12:12:24.310Z,17.00
2022-11-06T12:15:04.796Z,17.00
2022-11-06T12:17:35.490Z,17.10
2022-11-06T12:20:08.575Z,16.90
2022-11-06T12:22:41.667Z,16.50
2022-11-06T12:25:16.369Z,16.30
2022-11-06T12:27:47.732Z,16.60
2022-11-06T12:30:17.923Z,16.80
2022-11-06T12:33:06.154Z,16.70
2022-11-06T12:35:37.635Z,16.50
2022-11-06T12:38:15.997Z,16.60
2022-11-06T12:40:48.389Z,16.80
2022-11-06T12:43:23.499Z,16.40
2022-11-06T12:46:30.345Z,16.30
2022-11-06T12:49:36.374Z,16.30
2022-11-06T12:52:15.034Z,16.30
2022-11-06T12:54:56.619Z,16.20
2022-11-06T12:57:33.045Z,15.90
2022-11-06T13:00:09.595Z,16.10
2022-11-06T13:03:03.848Z,16.20
2022-11-06T13:05:36.757Z,16.00
2022-11-06T13:08:20.058Z,15.70
2022-11-06T13:10:59.437Z,15.60
2022-11-06T13:13:36.641Z,15.60
2022-11-06T13:16:13.667Z,15.40
2022-11-06T13:18:50.339Z,15.40
2022-11-06T13:21:25.537Z,15.70
2022-11-06T13:23:58.874Z,15.80
2022-11-06T13:26:34.379Z,15.70
2022-11-06T13:29:04.728Z,15.50
2022-11-06T13:31:38.690Z,15.40
2022-11-06T13:34:07.561Z,15.40
2022-11-06T13:36:37.610Z,15.40
2022-11-06T13:39:13.826Z,15.30
2022-11-06T13:41:43.077Z,15.30
2022-11-06T13:44:15.999Z,15.50
2022-11-06T13:46:54.466Z,15.20
2022-11-06T13:49:29.391Z,15.30
2022-11-06T13:52:00.159Z,15.20
2022-11-06T13:54:39.370Z,14.90
2022-11-06T13:57:39.044Z,14.80
2022-11-06T14:00:19.836Z,14.70
2022-11-06T14:03:23.101Z,14.80
2022-11-06T14:05:54.137Z,14.80
2022-11-06T14:08:24.902Z,14.80
2022-11-06T14:10:59.079Z,14.60
2022-11-06T14:13:29.585Z,14.50
2022-11-06T14:16:02.145Z,14.40
2022-11-06T14:18:31.536Z,14.20
2022-11-06T14:21:46.259Z,14.10
2022-11-06T14:24:39.099Z,14.10
2022-11-06T14:27:10.496Z,13.90
2022-11-06T14:29:56.699Z,13.80
2022-11-06T14:32:41.395Z,13.70
2022-11-06T14:35:50.362Z,13.50
2022-11-06T14:38:36.191Z,13.50
2022-11-06T14:41:47.251Z,13.40
2022-11-06T14:44:26.017Z,13.10
2022-11-06T14:46:56.776Z,13.00
2022-11-06T14:49:33.639Z,13.00
2022-11-06T14:52:04.168Z,12.80
2022-11-06T14:54:35.190Z,12.60
2022-11-06T14:57:03.311Z,12.50
2022-11-06T14:59:35.092Z,12.60
2022-11-06T15:02:20.506Z,12.50
2022-11-06T15:04:53.548Z,12.50
2022-11-06T15:08:03.382Z,12.20
2022-11-06T15:10:49.945Z,12.30
2022-11-06T15:13:27.068Z,12.20
2022-11-06T15:15:58.591Z,12.00
2022-11-06T15:18:26.699Z,11.80
2022-11-06T15:20:56.151Z,11.80
2022-11-06T15:23:27.275Z,11.80
2022-11-06T15:26:06.087Z,11.80
2022-11-06T15:28:40.795Z,11.70
2022-11-06T15:31:13.113Z,11.60
2022-11-06T15:33:52.936Z,11.60
2022-11-06T15:36:23.882Z,11.60
2022-11-06T15:38:51.093Z,11.50
2022-11-06T15:41:22.195Z,11.60
2022-11-06T15:43:50.196Z,11.50
2022-11-06T15:46:21.715Z,11.40
2022-11-06T15:49:05.192Z,11.20
2022-11-06T15:51:32.271Z,11.20
2022-11-06T15:53:59.594Z,11.10
2022-11-06T15:56:31.677Z,11.20
2022-11-06T15:59:11.453Z,11.00
2022-11-06T16:01:39.377Z,11.00
2022-11-06T16:04:15.662Z,11.00
2022-11-06T16:06:44.394Z,11.00
2022-11-06T16:09:17.992Z,11.10
2022-11-06T16:11:50.245Z,11.00
2022-11-06T16:14:17.993Z,10.90
2022-11-06T16:16:47.497Z,10.70
2022-11-06T16:19:31.993Z,10.50
2022-11-06T16:22:03.477Z,10.60
2022-11-06T16:24:38.946Z,10.50
2022-11-06T16:27:08.212Z,10.50
2022-11-06T16:29:36.494Z,10.50
2022-11-06T16:32:06.679Z,10.50
2022-11-06T16:34:42.035Z,10.40
2022-11-06T16:37:35.039Z,10.50
2022-11-06T16:40:02.145Z,10.60
2022-11-06T16:42:33.357Z,10.40
2022-11-06T16:45:26.012Z,10.40
2022-11-06T16:48:25.224Z,10.50
2022-11-06T16:50:55.826Z,10.40
2022-11-06T16:53:25.924Z,10.30
2022-11-06T16:55:54.883Z,10.20
2022-11-06T16:58:23.850Z,10.40
2022-11-06T17:01:02.261Z,10.60
2022-11-06T17:03:37.766Z,10.60
2022-11-06T17:06:05.777Z,10.60
2022-11-06T17:08:36.216Z,10.50
2022-11-06T17:11:16.839Z,10.30
2022-11-06T17:13:46.137Z,10.40
2022-11-06T17:16:15.591Z,10.40
2022-11-06T17:18:42.904Z,10.30
2022-11-06T17:21:14.236Z,10.40
2022-11-06T17:23:41.358Z,10.60
2022-11-06T17:26:14.523Z,10.80
2022-11-06T17:28:41.957Z,10.80
2022-11-06T17:31:13.529Z,10.70
2022-11-06T17:33:41.053Z,10.60
2022-11-06T17:36:11.481Z,10.60
2022-11-06T17:38:38.725Z,10.60
2022-11-06T17:41:06.066Z,10.60
2022-11-06T17:43:33.150Z,10.60
2022-11-06T17:46:01.441Z,10.70
2022-11-06T17:48:30.091Z,10.70
2022-11-06T17:51:18.382Z,10.80
2022-11-06T17:53:45.502Z,10.80
2022-11-06T17:56:12.600Z,10.80
2022-11-06T17:58:39.678Z,10.90
2022-11-06T18:01:08.970Z,10.80
2022-11-06T18:03:43.262Z,10.70
2022-11-06T18:06:11.289Z,10.80
2022-11-06T18:08:38.495Z,11.00
2022-11-06T18:11:05.956Z,11.10
2022-11-06T18:13:33.382Z,10.90
2022-11-06T18:16:00.959Z,10.60
2022-11-06T18:18:28.327Z,10.70
2022-11-06T18:20:56.829Z,10.90
2022-11-06T18:23:24.017Z,11.00
2022-11-06T18:25:55.914Z,11.10
2022-11-06T18:28:23.837Z,11.10
2022-11-06T18:30:51.262Z,11.00
2022-11-06T18:33:18.645Z,10.90
2022-11-06T18:35:46.450Z,11.00
2022-11-06T18:38:16.162Z,11.20
2022-11-06T18:40:47.416Z,10.90
2022-11-06T18:43:18.588Z,11.20
2022-11-06T18:45:45.791Z,11.30
2022-11-06T18:48:16.951Z,11.20
2022-11-06T18:50:47.388Z,11.20
2022-11-06T18:53:15.801Z,11.30
2022-11-06T18:55:46.602Z,11.50
2022-11-06T18:58:14.041Z,11.40
2022-11-06T19:00:41.389Z,11.20
2022-11-06T19:03:08.570Z,11.30
2022-11-06T19:05:35.715Z,11.30
2022-11-06T19:08:03.795Z,11.40
2022-11-06T19:10:32.706Z,11.50
2022-11-06T19:12:59.868Z,11.60
2022-11-06T19:15:27.002Z,11.60
2022-11-06T19:17:54.883Z,11.80
2022-11-06T19:20:22.316Z,11.80
2022-11-06T19:22:50.854Z,11.90
2022-11-06T19:25:18.433Z,12.00
2022-11-06T19:27:47.269Z,11.80
2022-11-06T19:30:14.797Z,11.60
2022-11-06T19:32:42.149Z,11.80
2022-11-06T19:35:09.950Z,11.80
2022-11-06T19:37:38.366Z,12.00
2022-11-06T19:40:07.298Z,12.00
2022-11-06T19:42:34.473Z,11.90
2022-11-06T19:45:04.427Z,11.90
2022-11-06T19:47:34.164Z,11.60
2022-11-06T19:50:01.380Z,11.50
2022-11-06T19:52:42.664Z,11.70
2022-11-06T19:55:26.056Z,11.80
2022-11-06T19:57:57.309Z,11.80
2022-11-06T20:00:25.900Z,11.90
2022-11-06T20:02:52.915Z,12.00
2022-11-06T20:05:20.240Z,12.00
2022-11-06T20:07:47.295Z,12.10
2022-11-06T20:10:14.579Z,12.00
2022-11-06T20:12:41.941Z,12.20
2022-11-06T20:15:09.743Z,12.20
2022-11-06T20:17:38.140Z,12.20
2022-11-06T20:20:06.093Z,12.30
2022-11-06T20:22:33.291Z,12.40
2022-11-06T20:25:00.322Z,12.40
2022-11-06T20:27:27.482Z,12.20
2022-11-06T20:29:54.577Z,12.20
2022-11-06T20:32:21.686Z,12.30
2022-11-06T20:34:50.796Z,12.20
2022-11-06T20:37:17.984Z,12.10
2022-11-06T20:39:45.503Z,12.40
2022-11-06T20:42:12.496Z,12.50
2022-11-06T20:44:39.755Z,12.70
2022-11-06T20:47:06.716Z,12.60
2022-11-06T20:49:33.775Z,12.70
2022-11-06T20:52:17.299Z,12.70
2022-11-06T20:54:47.495Z,12.80
2022-11-06T20:57:15.123Z,12.70
2022-11-06T20:59:45.345Z,13.10
2022-11-06T21:02:12.711Z,13.00
2022-11-06T21:04:40.002Z,12.90
2022-11-06T21:07:09.188Z,12.90
2022-11-06T21:09:36.396Z,12.80
2022-11-06T21:12:04.045Z,12.90
2022-11-06T21:14:37.771Z,12.90
2022-11-06T21:17:05.081Z,12.90
2022-11-06T21:19:35.166Z,13.00
2022-11-06T21:22:02.273Z,13.10
2022-11-06T21:24:30.785Z,12.90
2022-11-06T21:26:57.977Z,13.00
2022-11-06T21:29:26.282Z,12.90
2022-11-06T21:31:56.990Z,13.00
2022-11-06T21:34:25.466Z,13.00
2022-11-06T21:36:52.574Z,13.00
2022-11-06T21:39:22.709Z,13.00
2022-11-06T21:41:51.298Z,12.90
2022-11-06T21:44:18.749Z,12.90
2022-11-06T21:46:46.321Z,13.00
2022-11-06T21:49:13.804Z,13.10
2022-11-06T21:51:40.948Z,13.10
2022-11-06T21:54:28.419Z,13.10
2022-11-06T21:56:56.779Z,13.10
2022-11-06T21:59:26.154Z,13.10
2022-11-06T22:01:54.176Z,13.10
2022-11-06T22:04:21.343Z,13.10
2022-11-06T22:06:48.436Z,13.10
2022-11-06T22:09:18.370Z,13.30
2022-11-06T22:11:48.030Z,13.60
2022-11-06T22:14:17.416Z,13.40
2022-11-06T22:16:46.871Z,13.20
2022-11-06T22:19:15.756Z,13.10
2022-11-06T22:21:43.231Z,13.10
2022-11-06T22:24:12.027Z,12.90
2022-11-06T22:26:39.696Z,12.90
2022-11-06T22:29:08.345Z,13.10
2022-11-06T22:31:37.256Z,13.20
2022-11-06T22:34:05.174Z,13.40
2022-11-06T22:36:32.482Z,13.50
2022-11-06T22:39:03.370Z,13.60
2022-11-06T22:41:30.450Z,13.40
2022-11-06T22:43:59.282Z,13.30
2022-11-06T22:46:26.840Z,13.20
2022-11-06T22:48:56.097Z,13.20
2022-11-06T22:51:24.847Z,12.90
2022-11-06T22:53:52.226Z,12.90
2022-11-06T22:56:19.905Z,13.00
2022-11-06T22:58:47.372Z,13.10
2022-11-06T23:01:14.731Z,13.10
2022-11-06T23:03:41.690Z,13.10
2022-11-06T23:06:10.255Z,13.20
2022-11-06T23:08:44.189Z,13.50
2022-11-06T23:11:14.403Z,13.70
2022-11-06T23:13:41.397Z,13.80
2022-11-06T23:16:10.627Z,13.80
2022-11-06T23:18:37.851Z,13.60
2022-11-06T23:21:13.603Z,13.30
2022-11-06T23:23:40.720Z,13.40
2022-11-06T23:26:12.665Z,13.40
2022-11-06T23:28:39.842Z,13.40
2022-11-06T23:31:07.448Z,13.30
2022-11-06T23:33:34.944Z,13.50
2022-11-06T23:36:05.762Z,13.50
2022-11-06T23:38:34.445Z,13.50
2022-11-06T23:41:25.246Z,13.50
2022-11-06T23:43:52.372Z,13.50
2022-11-06T23:46:20.638Z,13.20
2022-11-06T23:48:47.741Z,13.40
2022-11-06T23:51:14.978Z,13.80
2022-11-06T23:53:43.696Z,13.60
2022-11-06T23:56:13.008Z,13.80
2022-11-06T23:58:40.719Z,13.80
